createdAt,value
2019-05-22T00:02:20.833Z,38.95
2019-05-22T00:05:31.821Z,43.02
2019-05-22T00:08:37.470Z,40.08
2019-05-22T00:11:43.884Z,42.27
2019-05-22T00:14:53.839Z,40.30
2019-05-22T00:18:01.402Z,41.90
2019-05-22T00:21:07.029Z,43.25
2019-05-22T00:24:14.842Z,43.63
2019-05-22T00:27:20.794Z,40.60
2019-05-22T00:30:27.660Z,41.28
2019-05-22T00:33:35.834Z,42.27
2019-05-22T00:36:38.650Z,40.83
2019-05-22T00:39:45.094Z,41.00
2019-05-22T00:43:03.305Z,43.30
2019-05-22T00:45:59.251Z,41.37
2019-05-22T00:49:04.548Z,42.60
2019-05-22T00:52:41.552Z,41.65
2019-05-22T00:55:49.719Z,41.40
2019-05-22T00:58:59.551Z,43.87
2019-05-22T01:02:05.541Z,42.60
2019-05-22T01:05:09.848Z,42.73
2019-05-22T01:08:17.859Z,41.95
2019-05-22T01:11:25.024Z,43.00
2019-05-22T01:14:42.290Z,43.25
2019-05-22T01:17:38.288Z,42.03
2019-05-22T01:20:42.878Z,41.65
2019-05-22T01:23:48.345Z,42.48
2019-05-22T01:26:55.046Z,42.65
2019-05-22T01:30:00.571Z,44.45
2019-05-22T01:33:10.661Z,44.00
2019-05-22T01:36:28.005Z,46.25
2019-05-22T01:40:09.621Z,44.75
2019-05-22T01:43:19.906Z,40.17
2019-05-22T01:46:25.890Z,41.53
2019-05-22T01:49:31.390Z,40.88
2019-05-22T01:52:38.206Z,43.92
2019-05-22T01:55:43.790Z,44.83
2019-05-22T01:58:49.867Z,44.83
2019-05-22T02:01:54.572Z,40.60
2019-05-22T02:05:00.561Z,39.67
2019-05-22T02:08:05.870Z,40.85
2019-05-22T02:11:14.289Z,42.93
2019-05-22T02:14:22.280Z,42.30
2019-05-22T02:17:33.237Z,44.55
2019-05-22T02:20:39.276Z,46.50
2019-05-22T02:23:43.814Z,46.33
2019-05-22T02:26:49.137Z,46.68
2019-05-22T02:29:55.090Z,45.23
2019-05-22T02:33:01.294Z,46.68
2019-05-22T02:36:05.898Z,39.63
2019-05-22T02:39:23.999Z,40.75
2019-05-22T02:42:30.817Z,44.15
2019-05-22T02:45:35.492Z,43.92
2019-05-22T02:48:42.416Z,45.00
2019-05-22T02:51:48.733Z,43.65
2019-05-22T02:54:53.019Z,44.60
2019-05-22T02:57:57.642Z,46.20
2019-05-22T03:01:05.549Z,43.58
2019-05-22T03:04:11.974Z,46.25
2019-05-22T03:07:16.236Z,44.60
2019-05-22T03:10:23.211Z,43.00
2019-05-22T03:13:59.620Z,42.85
2019-05-22T03:17:08.297Z,40.75
2019-05-22T03:20:16.340Z,41.85
2019-05-22T03:23:42.690Z,43.80
2019-05-22T03:26:50.507Z,42.67
2019-05-22T03:29:56.241Z,44.53
2019-05-22T03:33:02.145Z,44.75
2019-05-22T03:36:13.810Z,43.30
2019-05-22T03:39:19.284Z,47.00
2019-05-22T03:42:24.707Z,44.55
2019-05-22T03:45:29.442Z,46.28
2019-05-22T03:48:36.377Z,42.65
2019-05-22T03:51:40.962Z,44.58
2019-05-22T03:54:47.059Z,44.50
2019-05-22T03:57:51.863Z,44.93
2019-05-22T04:00:58.876Z,45.73
2019-05-22T04:04:07.409Z,44.60
2019-05-22T04:07:19.213Z,46.42
2019-05-22T04:10:25.881Z,46.67
2019-05-22T04:13:31.222Z,45.00
2019-05-22T04:16:35.556Z,45.05
2019-05-22T04:19:49.216Z,46.10
2019-05-22T04:22:47.840Z,45.25
2019-05-22T04:25:53.521Z,46.37
2019-05-22T04:29:00.640Z,47.83
2019-05-22T04:32:15.679Z,47.20
2019-05-22T04:35:20.988Z,46.02
2019-05-22T04:38:26.084Z,47.45
2019-05-22T04:41:31.262Z,44.85
2019-05-22T04:44:38.618Z,45.55
2019-05-22T04:47:55.058Z,47.70
2019-05-22T04:51:05.333Z,43.70
2019-05-22T04:54:09.616Z,47.13
2019-05-22T04:57:14.681Z,43.73
2019-05-22T05:00:21.817Z,44.08
2019-05-22T05:03:27.366Z,44.18
2019-05-22T05:06:35.521Z,46.60
2019-05-22T05:09:41.285Z,47.85
2019-05-22T05:12:46.507Z,49.98
2019-05-22T05:15:50.818Z,47.13
2019-05-22T05:18:55.543Z,48.08
2019-05-22T05:22:00.044Z,47.45
2019-05-22T05:25:04.452Z,42.98
2019-05-22T05:28:11.958Z,42.98
2019-05-22T05:31:16.560Z,45.38
2019-05-22T05:34:54.632Z,41.68
2019-05-22T05:37:59.714Z,40.43
2019-05-22T05:41:04.804Z,41.02
2019-05-22T05:44:09.080Z,39.23
2019-05-22T05:47:14.309Z,38.70
2019-05-22T05:50:20.255Z,35.58
2019-05-22T05:53:26.129Z,36.80
2019-05-22T05:56:33.439Z,36.35
2019-05-22T05:59:37.862Z,37.00
2019-05-22T06:02:55.602Z,37.40
2019-05-22T06:05:48.782Z,36.05
2019-05-22T06:08:53.048Z,36.95
2019-05-22T06:12:05.369Z,35.03
2019-05-22T06:15:07.918Z,32.58
2019-05-22T06:18:35.470Z,35.45
2019-05-22T06:21:44.194Z,34.20
2019-05-22T06:25:01.951Z,33.55
2019-05-22T06:28:06.771Z,33.53
2019-05-22T06:31:16.352Z,31.02
2019-05-22T06:34:21.069Z,32.40
2019-05-22T06:37:34.723Z,31.75
2019-05-22T06:40:38.984Z,30.92
2019-05-22T06:44:43.363Z,30.70
2019-05-22T06:47:47.660Z,30.60
2019-05-22T06:50:52.596Z,28.52
2019-05-22T06:53:57.059Z,28.55
2019-05-22T06:57:01.617Z,29.77
2019-05-22T07:00:25.557Z,30.55
2019-05-22T07:03:30.939Z,28.90
2019-05-22T07:06:35.698Z,30.70
2019-05-22T07:09:41.015Z,30.80
2019-05-22T07:12:45.472Z,28.92
2019-05-22T07:15:52.183Z,29.52
2019-05-22T07:18:57.368Z,27.87
2019-05-22T07:22:02.029Z,24.20
2019-05-22T07:25:08.521Z,26.33
2019-05-22T07:28:13.467Z,27.00
2019-05-22T07:31:18.313Z,28.15
2019-05-22T07:34:23.404Z,27.98
2019-05-22T07:37:28.331Z,29.85
2019-05-22T07:40:33.747Z,30.95
2019-05-22T07:43:41.429Z,30.70
2019-05-22T07:46:44.517Z,30.68
2019-05-22T07:49:48.720Z,28.83
2019-05-22T07:52:53.440Z,28.02
2019-05-22T07:55:59.501Z,26.57
2019-05-22T07:59:07.270Z,28.87
2019-05-22T08:02:13.150Z,29.15
2019-05-22T08:05:21.289Z,26.25
2019-05-22T08:08:27.649Z,29.70
2019-05-22T08:11:32.494Z,31.12
2019-05-22T08:14:39.198Z,28.55
2019-05-22T08:17:43.586Z,28.95
2019-05-22T08:20:48.094Z,29.15
2019-05-22T08:23:54.643Z,30.27
2019-05-22T08:26:59.710Z,29.87
2019-05-22T08:30:04.945Z,30.20
2019-05-22T08:33:12.690Z,29.48
2019-05-22T08:36:17.325Z,31.45
2019-05-22T08:39:26.018Z,30.30
2019-05-22T08:42:31.067Z,30.40
2019-05-22T08:45:37.468Z,28.27
2019-05-22T08:48:48.148Z,26.60
2019-05-22T08:51:49.780Z,26.82
2019-05-22T08:54:54.537Z,27.90
2019-05-22T08:57:59.451Z,27.07
2019-05-22T09:01:04.612Z,27.77
2019-05-22T09:04:09.175Z,27.17
2019-05-22T09:07:13.456Z,26.97
2019-05-22T09:10:19.874Z,27.00
2019-05-22T09:13:24.715Z,26.48
2019-05-22T09:16:29.331Z,26.10
2019-05-22T09:19:34.241Z,24.90
2019-05-22T09:22:40.980Z,23.90
2019-05-22T09:25:45.220Z,25.17
2019-05-22T09:28:49.561Z,25.08
2019-05-22T09:31:54.041Z,24.32
2019-05-22T09:34:58.380Z,22.00
2019-05-22T09:38:03.239Z,20.70
2019-05-22T09:41:07.707Z,21.90
2019-05-22T09:44:15.186Z,24.05
2019-05-22T09:47:21.692Z,21.02
2019-05-22T09:50:26.279Z,22.05
2019-05-22T09:53:31.104Z,21.25
2019-05-22T09:56:35.976Z,20.48
2019-05-22T09:59:40.421Z,18.90
2019-05-22T10:02:44.979Z,20.65
2019-05-22T10:05:49.225Z,21.30
2019-05-22T10:08:53.459Z,20.72
2019-05-22T10:11:57.689Z,20.20
2019-05-22T10:15:04.073Z,18.02
2019-05-22T10:18:09.108Z,18.75
2019-05-22T10:21:14.092Z,19.45
2019-05-22T10:24:19.421Z,19.35
2019-05-22T10:27:24.193Z,19.37
2019-05-22T10:30:28.547Z,20.23
2019-05-22T10:33:32.877Z,19.17
2019-05-22T10:36:37.833Z,19.40
2019-05-22T10:39:42.299Z,15.93
2019-05-22T10:42:47.120Z,15.65
2019-05-22T10:45:51.704Z,16.62
2019-05-22T10:48:56.946Z,17.05
2019-05-22T10:52:01.191Z,18.70
2019-05-22T10:55:06.243Z,16.55
2019-05-22T10:58:10.580Z,17.73
2019-05-22T11:01:15.856Z,16.23
2019-05-22T11:04:22.184Z,16.93
2019-05-22T11:07:28.817Z,10.75
2019-05-22T11:10:33.208Z,10.63
2019-05-22T11:13:37.921Z,10.98
2019-05-22T11:16:44.138Z,12.45
2019-05-22T11:19:48.481Z,11.83
2019-05-22T11:22:53.813Z,13.10
2019-05-22T11:25:58.172Z,12.43
2019-05-22T11:29:02.924Z,10.60
2019-05-22T11:32:07.819Z,10.55
2019-05-22T11:35:13.115Z,10.03
2019-05-22T11:38:17.584Z,11.28
2019-05-22T11:41:21.876Z,10.50
2019-05-22T11:44:26.726Z,9.95
2019-05-22T11:47:31.354Z,10.20
2019-05-22T11:50:40.608Z,11.25
2019-05-22T11:53:45.355Z,11.25
2019-05-22T11:56:49.665Z,10.23
2019-05-22T11:59:53.900Z,10.35
2019-05-22T12:03:00.450Z,10.80
2019-05-22T12:06:05.429Z,11.68
2019-05-22T12:09:11.519Z,11.30
2019-05-22T12:12:16.239Z,11.18
2019-05-22T12:15:24.064Z,10.85
2019-05-22T12:18:28.839Z,11.33
2019-05-22T12:21:36.288Z,10.05
2019-05-22T12:24:40.758Z,10.75
2019-05-22T12:27:45.072Z,11.10
2019-05-22T12:30:50.285Z,12.03
2019-05-22T12:33:54.735Z,11.38
2019-05-22T12:36:59.247Z,11.63
2019-05-22T12:40:05.714Z,11.48
2019-05-22T12:43:11.273Z,10.75
2019-05-22T12:46:16.482Z,10.10
2019-05-22T12:49:21.664Z,10.45
2019-05-22T12:52:26.449Z,11.12
2019-05-22T12:55:31.327Z,10.45
2019-05-22T12:58:36.534Z,8.93
2019-05-22T13:01:41.417Z,8.45
2019-05-22T13:04:46.080Z,7.58
2019-05-22T13:07:51.839Z,7.75
2019-05-22T13:10:57.999Z,9.05
2019-05-22T13:14:02.596Z,7.80
2019-05-22T13:17:10.299Z,7.08
2019-05-22T13:20:18.493Z,4.83
2019-05-22T13:23:26.664Z,5.05
2019-05-22T13:26:31.640Z,4.35
2019-05-22T13:29:35.973Z,5.05
2019-05-22T13:32:43.263Z,6.12
2019-05-22T13:35:48.083Z,5.87
2019-05-22T13:38:52.800Z,5.62
2019-05-22T13:41:57.118Z,6.65
2019-05-22T13:45:01.760Z,6.17
2019-05-22T13:48:06.330Z,5.97
2019-05-22T13:51:12.553Z,5.12
2019-05-22T13:54:16.947Z,5.58
2019-05-22T13:57:21.575Z,5.60
2019-05-22T14:00:26.200Z,5.35
2019-05-22T14:03:30.773Z,4.15
2019-05-22T14:06:36.118Z,4.67
2019-05-22T14:09:40.788Z,4.75
2019-05-22T14:12:45.297Z,4.17
2019-05-22T14:15:56.143Z,5.03
2019-05-22T14:18:55.645Z,6.28
2019-05-22T14:21:59.996Z,6.00
2019-05-22T14:25:04.749Z,6.70
2019-05-22T14:28:09.673Z,6.30
2019-05-22T14:31:14.061Z,5.60
2019-05-22T14:34:19.041Z,6.60
2019-05-22T14:37:23.770Z,8.80
2019-05-22T14:40:28.631Z,7.00
2019-05-22T14:43:33.161Z,7.42
2019-05-22T14:46:37.407Z,7.97
2019-05-22T14:49:41.834Z,9.50
2019-05-22T14:52:46.085Z,9.93
2019-05-22T14:55:51.559Z,9.95
2019-05-22T14:58:56.272Z,10.95
2019-05-22T15:02:00.906Z,11.73
2019-05-22T15:05:06.868Z,12.40
2019-05-22T15:08:11.531Z,13.55
2019-05-22T15:11:16.797Z,14.07
2019-05-22T15:14:21.355Z,15.63
2019-05-22T15:17:32.381Z,15.63
2019-05-22T15:20:37.479Z,16.55
2019-05-22T15:23:43.408Z,15.75
2019-05-22T15:26:48.432Z,14.70
2019-05-22T15:29:53.124Z,14.00
2019-05-22T15:32:58.162Z,13.53
2019-05-22T15:36:06.620Z,11.95
2019-05-22T15:39:12.267Z,11.28
2019-05-22T15:42:37.692Z,11.45
2019-05-22T15:45:43.012Z,8.38
2019-05-22T15:48:48.858Z,7.87
2019-05-22T15:51:53.832Z,6.40
2019-05-22T15:54:58.208Z,5.53
2019-05-22T15:58:05.424Z,4.90
2019-05-22T16:01:11.056Z,3.90
2019-05-22T16:04:18.325Z,4.58
2019-05-22T16:07:23.689Z,3.45
2019-05-22T16:10:28.924Z,2.20
2019-05-22T16:13:34.863Z,1.70
2019-05-22T16:16:39.992Z,1.27
2019-05-22T16:19:46.661Z,1.85
2019-05-22T16:22:52.635Z,1.60
2019-05-22T16:25:56.931Z,1.67
2019-05-22T16:29:02.236Z,1.40
2019-05-22T16:32:10.239Z,1.32
2019-05-22T16:35:15.224Z,1.17
2019-05-22T16:38:20.740Z,1.32
2019-05-22T16:44:58.976Z,1.92
2019-05-22T16:48:04.847Z,1.75
2019-05-22T16:51:11.732Z,1.90
2019-05-22T16:54:20.697Z,1.70
2019-05-22T16:57:25.694Z,1.67
2019-05-22T17:00:31.176Z,1.90
2019-05-22T17:03:36.021Z,1.70
2019-05-22T17:06:43.470Z,2.10
2019-05-22T17:09:49.653Z,2.40
2019-05-22T17:12:54.852Z,3.15
2019-05-22T17:15:59.998Z,3.02
2019-05-22T17:19:25.132Z,3.30
2019-05-22T17:22:12.609Z,3.25
2019-05-22T17:25:23.047Z,2.85
2019-05-22T17:28:29.207Z,2.37
2019-05-22T17:31:34.845Z,2.33
2019-05-22T17:34:39.949Z,2.42
2019-05-22T17:37:46.786Z,2.50
2019-05-22T17:40:51.118Z,2.15
2019-05-22T17:43:55.758Z,2.12
2019-05-22T17:47:01.591Z,2.10
2019-05-22T17:50:23.652Z,2.42
2019-05-22T17:53:14.031Z,2.45
2019-05-22T17:56:18.657Z,2.52
2019-05-22T17:59:23.107Z,1.77
2019-05-22T18:02:31.812Z,1.77
2019-05-22T18:05:36.499Z,1.57
2019-05-22T18:08:40.991Z,1.52
2019-05-22T18:11:45.308Z,1.60
2019-05-22T18:14:52.810Z,1.50
2019-05-22T18:17:58.334Z,1.25
2019-05-22T18:21:03.210Z,1.40
2019-05-22T18:24:08.864Z,1.30
2019-05-22T18:27:13.318Z,1.30
2019-05-22T18:30:18.092Z,1.30
2019-05-22T18:33:22.285Z,1.42
2019-05-22T18:36:26.601Z,1.10
2019-05-22T18:39:31.474Z,1.30
2019-05-22T18:42:36.596Z,1.47
2019-05-22T18:45:42.525Z,1.50
2019-05-22T18:48:48.355Z,1.50
2019-05-22T18:51:52.837Z,1.40
2019-05-22T18:55:01.837Z,1.40
2019-05-22T18:58:03.623Z,1.27
2019-05-22T19:01:07.882Z,1.20
2019-05-22T19:04:12.665Z,1.20
2019-05-22T19:07:17.367Z,1.40
2019-05-22T19:10:22.133Z,1.20
2019-05-22T19:13:26.450Z,1.32
2019-05-22T19:16:31.434Z,1.10
2019-05-22T19:19:36.873Z,1.30
2019-05-22T19:22:56.719Z,1.10
2019-05-22T19:25:47.334Z,1.30
2019-05-22T19:28:51.827Z,1.30
2019-05-22T19:31:56.185Z,1.40
2019-05-22T19:35:00.704Z,1.30
2019-05-22T19:38:06.138Z,1.27
2019-05-22T19:41:11.559Z,1.50
2019-05-22T19:44:16.695Z,1.40
2019-05-22T19:47:22.803Z,1.40
2019-05-22T19:50:28.774Z,1.07
2019-05-22T19:53:33.633Z,1.25
2019-05-22T19:56:40.905Z,1.40
2019-05-22T19:59:45.649Z,1.50
2019-05-22T20:02:51.361Z,1.42
2019-05-22T20:05:55.795Z,1.60
2019-05-22T20:09:00.634Z,1.77
2019-05-22T20:12:05.463Z,1.77
2019-05-22T20:15:10.273Z,1.42
2019-05-22T20:18:14.685Z,1.40
2019-05-22T20:21:19.388Z,1.60
2019-05-22T20:24:24.296Z,1.70
2019-05-22T20:27:29.128Z,2.30
2019-05-22T20:30:33.458Z,3.77
2019-05-22T20:33:37.822Z,3.67
2019-05-22T20:36:43.318Z,2.92
2019-05-22T20:39:49.874Z,3.20
2019-05-22T20:42:54.582Z,2.80
2019-05-22T20:46:00.827Z,2.80
2019-05-22T20:49:06.201Z,2.40
2019-05-22T20:52:11.807Z,2.65
2019-05-22T20:55:16.376Z,2.95
2019-05-22T20:58:22.900Z,3.20
2019-05-22T21:01:27.180Z,3.55
2019-05-22T21:04:33.364Z,3.25
2019-05-22T21:07:42.959Z,3.30
2019-05-22T21:10:48.929Z,3.58
2019-05-22T21:13:53.808Z,3.05
2019-05-22T21:16:58.602Z,3.52
2019-05-22T21:20:04.761Z,3.10
2019-05-22T21:23:09.477Z,3.40
2019-05-22T21:26:15.444Z,3.58
2019-05-22T21:29:19.934Z,3.85
2019-05-22T21:32:24.834Z,4.15
2019-05-22T21:35:30.062Z,3.95
2019-05-22T21:38:34.429Z,4.45
2019-05-22T21:41:39.001Z,4.20
2019-05-22T21:44:45.726Z,4.40
2019-05-22T21:47:50.632Z,4.50
2019-05-22T21:50:56.673Z,4.72
2019-05-22T21:54:01.968Z,4.75
2019-05-22T21:57:06.798Z,4.42
2019-05-22T22:00:14.565Z,4.20
2019-05-22T22:03:21.386Z,4.40
2019-05-22T22:06:26.768Z,4.25
2019-05-22T22:09:31.943Z,4.17
2019-05-22T22:12:38.649Z,4.28
2019-05-22T22:15:44.311Z,4.15
2019-05-22T22:18:49.224Z,4.25
2019-05-22T22:21:57.112Z,3.80
2019-05-22T22:25:01.571Z,4.00
2019-05-22T22:28:06.286Z,4.20
2019-05-22T22:31:12.286Z,4.12
2019-05-22T22:34:24.607Z,4.30
2019-05-22T22:37:31.236Z,3.75
2019-05-22T22:40:35.932Z,3.77
2019-05-22T22:43:40.857Z,4.40
2019-05-22T22:46:57.858Z,3.92
2019-05-22T22:50:02.660Z,3.47
2019-05-22T22:53:08.034Z,3.50
2019-05-22T22:56:15.479Z,3.85
2019-05-22T22:59:20.965Z,3.87
2019-05-22T23:02:29.270Z,3.47
2019-05-22T23:05:36.394Z,3.90
2019-05-22T23:08:41.749Z,3.83
2019-05-22T23:11:48.493Z,3.72
2019-05-22T23:14:56.979Z,3.58
2019-05-22T23:18:01.992Z,3.80
2019-05-22T23:21:04.792Z,3.10
2019-05-22T23:24:08.435Z,3.25
2019-05-22T23:27:15.722Z,3.27
2019-05-22T23:30:22.780Z,3.85
2019-05-22T23:33:28.827Z,4.00
2019-05-22T23:36:33.261Z,4.35
2019-05-22T23:39:39.520Z,3.83
2019-05-22T23:42:44.252Z,3.90
2019-05-22T23:45:51.149Z,3.85
2019-05-22T23:48:58.525Z,4.40
2019-05-22T23:52:03.337Z,3.80
2019-05-22T23:55:09.556Z,3.95
2019-05-22T23:58:16.440Z,4.70
